Time;durP1;ratioP1;P1;durP2;ratioP2;P2;SDS_P1;SDS_P2;PMS_P1;PMS_P2;Temp;Humidity;BMP_temperature;BMP_pressure;BME280_temperature;BME280_humidity;BME280_pressure;Samples;Min_cycle;Max_cycle;Signal;HPM_P1;HPM_P2
2022/11/05 00:33:54;;;;;;;11.20;5.43;;;;;;;9.37;100.00;100142.00;20978118;28;20492;-78
2022/11/05 00:54:16;;;;;;;11.68;5.47;;;;;;;9.39;100.00;100150.66;20971262;28;20075;-79
2022/11/05 01:04:18;;;;;;;10.93;6.03;;;;;;;9.37;100.00;100158.53;20968755;28;20037;-79
2022/11/05 01:14:19;;;;;;;12.23;6.32;;;;;;;9.36;100.00;100167.25;20967285;28;20059;-79
2022/11/05 01:24:21;;;;;;;13.23;6.40;;;;;;;9.37;100.00;100174.22;20978350;28;20136;-79
2022/11/05 01:34:22;;;;;;;12.15;6.45;;;;;;;9.31;100.00;100184.75;20977539;28;20033;-79
2022/11/05 01:44:24;;;;;;;15.07;6.55;;;;;;;9.34;100.00;100192.56;20976656;28;20481;-79
2022/11/05 01:54:25;;;;;;;13.40;6.60;;;;;;;9.30;100.00;100203.06;20968685;28;20502;-80
2022/11/05 02:04:26;;;;;;;15.20;7.63;;;;;;;9.29;100.00;100212.63;20974257;28;20044;-78
2022/11/05 02:14:28;;;;;;;15.70;7.63;;;;;;;9.25;100.00;100217.06;20968656;28;20048;-78
2022/11/05 02:24:29;;;;;;;12.20;7.20;;;;;;;9.24;100.00;100220.53;20966014;28;20049;-79
2022/11/05 02:34:30;;;;;;;14.60;7.00;;;;;;;9.23;100.00;100234.47;20977740;28;20041;-79
2022/11/05 02:44:32;;;;;;;13.95;7.05;;;;;;;9.31;100.00;100236.16;20982099;28;20071;-79
2022/11/05 02:54:34;;;;;;;14.73;8.18;;;;;;;9.18;100.00;100231.06;20968830;28;20045;-78
2022/11/05 03:04:35;;;;;;;15.65;7.32;;;;;;;9.12;100.00;100240.75;20965711;28;20040;-78
2022/11/05 03:14:37;;;;;;;11.15;6.93;;;;;;;9.13;100.00;100250.28;20937503;28;20045;-78
2022/11/05 03:24:38;;;;;;;17.35;8.02;;;;;;;9.22;100.00;100258.03;20954604;28;20044;-79
2022/11/05 03:34:40;;;;;;;12.90;6.57;;;;;;;9.15;100.00;100285.09;20963258;28;20041;-79
2022/11/05 03:44:41;;;;;;;19.38;6.88;;;;;;;9.11;100.00;100289.50;20950294;28;20051;-79
2022/11/05 03:54:42;;;;;;;11.48;6.40;;;;;;;9.16;100.00;100300.75;20969755;28;20048;-79
2022/11/05 04:04:44;;;;;;;10.88;5.95;;;;;;;9.17;100.00;100312.94;20948499;28;20087;-79
2022/11/05 04:14:45;;;;;;;12.57;6.03;;;;;;;9.14;100.00;100320.78;20956856;28;20053;-79
2022/11/05 04:24:47;;;;;;;12.93;6.32;;;;;;;8.97;100.00;100331.44;20956279;28;20048;-80
2022/11/05 04:34:48;;;;;;;10.63;5.50;;;;;;;8.87;100.00;100350.69;20958172;28;20037;-79
2022/11/05 04:44:50;;;;;;;8.65;4.63;;;;;;;8.82;100.00;100346.41;20960831;28;20048;-79
2022/11/05 04:54:51;;;;;;;13.25;5.03;;;;;;;8.78;100.00;100352.53;20946395;28;20051;-80
2022/11/05 05:04:52;;;;;;;8.65;4.85;;;;;;;8.73;100.00;100373.44;20967336;28;20331;-79
2022/11/05 05:14:54;;;;;;;12.07;5.18;;;;;;;8.71;100.00;100378.66;20971993;28;20106;-78
2022/11/05 05:24:55;;;;;;;11.25;5.25;;;;;;;8.77;100.00;100384.72;20966451;28;20044;-79
2022/11/05 05:34:57;;;;;;;9.35;5.28;;;;;;;8.81;100.00;100407.31;20960972;28;20044;-80
2022/11/05 05:44:58;;;;;;;12.80;4.90;;;;;;;8.74;100.00;100416.94;20951786;28;20040;-78
2022/11/05 05:55:00;;;;;;;10.40;4.57;;;;;;;8.78;100.00;100429.09;20963452;28;20113;-79
2022/11/05 06:05:01;;;;;;;9.40;5.00;;;;;;;8.73;100.00;100455.22;20957624;28;20098;-79
2022/11/05 06:15:02;;;;;;;9.10;4.18;;;;;;;8.75;100.00;100465.66;20957793;28;20044;-79
2022/11/05 06:25:04;;;;;;;7.88;3.70;;;;;;;8.70;100.00;100480.47;20963634;28;20044;-78
2022/11/05 06:35:05;;;;;;;13.02;3.85;;;;;;;8.62;100.00;100496.19;20964744;28;20078;-79
2022/11/05 06:45:07;;;;;;;12.15;3.67;;;;;;;8.61;100.00;100504.03;20963045;28;20072;-78
2022/11/05 06:55:08;;;;;;;8.65;3.13;;;;;;;8.64;100.00;100511.84;20954357;28;20464;-79
2022/11/05 07:05:10;;;;;;;6.78;3.38;;;;;;;8.68;100.00;100529.25;20966869;28;20045;-79
2022/11/05 07:15:11;;;;;;;7.38;3.47;;;;;;;8.65;100.00;100550.13;20985186;28;20074;-79
2022/11/05 07:25:12;;;;;;;7.80;4.03;;;;;;;8.74;100.00;100566.59;20972815;28;20056;-79
2022/11/05 07:35:14;;;;;;;6.68;3.53;;;;;;;8.74;100.00;100589.22;20976254;28;20045;-77
2022/11/05 07:45:15;;;;;;;6.63;3.58;;;;;;;8.84;100.00;100596.13;20938460;28;21534;-78
2022/11/05 07:55:17;;;;;;;6.72;3.40;;;;;;;8.93;100.00;100609.16;20964159;22;20056;-71
2022/11/05 08:05:18;;;;;;;10.57;3.95;;;;;;;9.04;100.00;100614.28;20851334;28;20077;-71
2022/11/05 08:15:19;;;;;;;8.00;3.58;;;;;;;9.20;100.00;100630.75;20864789;28;20554;-72
2022/11/05 08:25:20;;;;;;;5.47;2.55;;;;;;;9.32;100.00;100646.34;20873163;28;20057;-71
2022/11/05 08:35:22;;;;;;;5.82;3.05;;;;;;;9.34;100.00;100649.84;20856727;28;20046;-73
2022/11/05 08:45:24;;;;;;;5.50;2.72;;;;;;;9.57;100.00;100644.41;20857297;28;20049;-72
2022/11/05 08:55:25;;;;;;;7.13;3.30;;;;;;;9.67;100.00;100659.16;20901824;28;20064;-73
2022/11/05 09:05:26;;;;;;;6.80;3.15;;;;;;;9.89;100.00;100654.63;20896716;28;20075;-71
2022/11/05 09:15:28;;;;;;;5.20;2.60;;;;;;;10.08;100.00;100654.44;20884669;28;20041;-72
2022/11/05 09:25:29;;;;;;;8.60;2.97;;;;;;;10.17;100.00;100675.31;20900760;28;20497;-72
2022/11/05 09:35:30;;;;;;;9.45;3.05;;;;;;;10.24;100.00;100682.22;20898710;28;20092;-73
2022/11/05 09:45:32;;;;;;;12.60;3.28;;;;;;;10.12;100.00;100687.56;20898446;28;20413;-73
2022/11/05 09:55:33;;;;;;;6.72;3.35;;;;;;;10.06;100.00;100693.72;20879348;28;20060;-73
2022/11/05 10:05:34;;;;;;;9.73;3.90;;;;;;;9.93;100.00;100703.41;20897655;28;20081;-72
2022/11/05 10:15:36;;;;;;;7.07;3.17;;;;;;;10.33;100.00;100710.94;20896975;28;20395;-74
2022/11/05 10:25:38;;;;;;;7.50;3.28;;;;;;;10.98;100.00;100719.81;20895596;28;20190;-72
2022/11/05 10:35:39;;;;;;;6.07;2.55;;;;;;;11.14;100.00;100719.63;20894071;28;20049;-71
2022/11/05 10:45:41;;;;;;;6.85;2.95;;;;;;;11.38;100.00;100723.66;20892934;28;20087;-71
2022/11/05 10:55:42;;;;;;;6.95;2.90;;;;;;;11.29;100.00;100722.03;20893202;28;20482;-70
2022/11/05 11:05:44;;;;;;;9.15;2.72;;;;;;;10.53;100.00;100724.66;20886968;28;20084;-71
2022/11/05 11:15:45;;;;;;;9.95;3.35;;;;;;;10.56;100.00;100722.91;20892076;28;20497;-71
2022/11/05 11:25:49;;;;;;;8.82;2.75;;;;;;;10.27;100.00;100724.94;20890268;28;20092;-73
2022/11/05 11:35:50;;;;;;;11.00;2.93;;;;;;;10.26;100.00;100722.34;20890185;28;20071;-71
2022/11/05 11:45:52;;;;;;;7.32;2.15;;;;;;;10.38;100.00;100721.34;20888365;28;20049;-71
2022/11/05 11:55:54;;;;;;;8.18;2.38;;;;;;;10.89;100.00;100726.91;20871295;28;20041;-71
2022/11/05 12:05:55;;;;;;;6.97;1.92;;;;;;;11.25;100.00;100722.97;20888379;28;20045;-71
2022/11/05 12:15:56;;;;;;;8.90;1.98;;;;;;;11.64;100.00;100716.31;20895067;28;20053;-75
2022/11/05 12:25:58;;;;;;;5.47;1.80;;;;;;;11.21;100.00;100716.91;20904765;28;20076;-71
2022/11/05 12:36:02;;;;;;;11.55;4.50;;;;;;;11.34;100.00;100722.84;20903678;28;20099;-71
2022/11/05 12:46:04;;;;;;;6.30;2.30;;;;;;;11.48;100.00;100720.88;20902940;28;20064;-71
2022/11/05 12:56:05;;;;;;;7.38;2.80;;;;;;;11.32;100.00;100722.00;20902255;28;20075;-72
2022/11/05 13:06:06;;;;;;;8.30;4.10;;;;;;;11.07;100.00;100736.28;20902656;28;20092;-74
2022/11/05 13:16:08;;;;;;;14.00;4.70;;;;;;;10.71;100.00;100744.56;20901236;28;20048;-73
2022/11/05 13:26:09;;;;;;;8.98;4.35;;;;;;;10.45;100.00;100750.09;20897531;28;20041;-72
2022/11/05 13:46:38;;;;;;;9.57;3.53;;;;;;;10.63;100.00;100732.44;20899663;28;20045;-73
2022/11/05 13:56:39;;;;;;;8.13;3.28;;;;;;;10.63;100.00;100750.75;20897645;28;20140;-73
2022/11/05 14:06:41;;;;;;;7.38;3.17;;;;;;;10.48;100.00;100739.56;20897321;28;20091;-73
2022/11/05 14:16:42;;;;;;;9.75;3.47;;;;;;;10.40;100.00;100746.66;20896923;28;20490;-74
2022/11/05 14:26:43;;;;;;;7.22;3.17;;;;;;;10.57;100.00;100740.38;20895339;28;20045;-73
2022/11/05 14:36:45;;;;;;;7.63;3.60;;;;;;;10.59;100.00;100741.19;20894031;28;20075;-73
2022/11/05 14:46:46;;;;;;;9.65;4.10;;;;;;;10.33;100.00;100734.47;20893512;28;20092;-72
2022/11/05 14:56:48;;;;;;;11.20;3.85;;;;;;;10.26;100.00;100740.66;20893897;28;20478;-73
2022/11/05 15:06:56;;;;;;;12.00;4.20;;;;;;;10.18;100.00;100755.53;20881656;28;20041;-75
2022/11/05 15:16:57;;;;;;;7.82;3.90;;;;;;;9.95;100.00;100748.72;20883670;28;20555;-74
2022/11/05 15:26:58;;;;;;;13.85;5.05;;;;;;;9.82;100.00;100743.59;20891540;28;20049;-74
2022/11/05 15:37:00;;;;;;;9.05;4.50;;;;;;;9.72;100.00;100768.94;20890311;28;20490;-73
2022/11/05 15:47:01;;;;;;;10.85;5.75;;;;;;;9.62;100.00;100769.88;20889092;28;20509;-74
2022/11/05 15:57:03;;;;;;;10.32;6.05;;;;;;;9.39;100.00;100752.59;20887966;28;20090;-71
2022/11/05 16:07:04;;;;;;;23.42;12.57;;;;;;;9.18;100.00;100763.13;20872098;28;20049;-73
2022/11/05 16:17:05;;;;;;;20.63;12.23;;;;;;;8.94;100.00;100772.78;20889164;28;20532;-73
2022/11/05 16:27:07;;;;;;;18.88;10.23;;;;;;;8.72;100.00;100773.75;20887748;28;20053;-73
2022/11/05 16:37:08;;;;;;;19.13;11.30;;;;;;;8.52;100.00;100767.66;20887196;28;20084;-73
2022/11/05 16:47:09;;;;;;;27.67;13.27;;;;;;;8.35;100.00;100778.97;20886783;28;20041;-74
2022/11/05 16:57:11;;;;;;;23.67;15.15;;;;;;;8.16;100.00;100798.09;20886092;28;20049;-77
2022/11/05 17:07:13;;;;;;;43.10;31.63;;;;;;;7.93;100.00;100801.53;20886505;28;20045;-76
2022/11/05 17:17:14;;;;;;;27.52;15.68;;;;;;;7.77;100.00;100819.78;20893339;28;20061;-74
2022/11/05 17:27:15;;;;;;;20.75;13.02;;;;;;;7.59;100.00;100826.66;20898443;28;21541;-74
2022/11/05 17:37:17;;;;;;;17.42;10.15;;;;;;;7.39;100.00;100823.97;20896158;28;20056;-71
2022/11/05 17:47:18;;;;;;;21.17;11.15;;;;;;;7.22;100.00;100838.66;20896047;28;20491;-71
2022/11/05 17:57:20;;;;;;;20.75;10.20;;;;;;;7.05;100.00;100850.72;20894511;28;20048;-72
2022/11/05 18:07:21;;;;;;;14.65;7.97;;;;;;;6.93;100.00;100874.94;20894326;28;20094;-72
2022/11/05 18:17:22;;;;;;;21.48;11.55;;;;;;;6.93;100.00;100854.97;20888614;28;20056;-72
2022/11/05 18:27:26;;;;;;;22.42;13.98;;;;;;;7.02;100.00;100850.69;20892989;28;20053;-72
2022/11/05 18:37:27;;;;;;;20.85;11.82;;;;;;;7.09;100.00;100860.28;20891962;28;20045;-72
2022/11/05 18:47:31;;;;;;;25.60;12.13;;;;;;;7.07;100.00;100856.81;20891724;28;20094;-72
2022/11/05 18:57:33;;;;;;;53.92;29.08;;;;;;;7.06;100.00;100860.28;20890859;28;20056;-72
2022/11/05 19:07:34;;;;;;;22.83;14.30;;;;;;;7.01;100.00;100856.78;20889862;28;20087;-72
2022/11/05 19:17:36;;;;;;;32.38;18.88;;;;;;;6.96;100.00;100858.47;20886630;28;20087;-71
2022/11/05 19:27:38;;;;;;;21.20;11.90;;;;;;;6.82;100.00;100867.06;20872108;28;20409;-72
2022/11/05 19:37:40;;;;;;;19.98;12.73;;;;;;;6.72;100.00;100854.84;20873766;28;20486;-74
2022/11/05 19:47:41;;;;;;;21.45;11.63;;;;;;;6.53;100.00;100865.97;20876378;28;20091;-73
2022/11/05 19:57:43;;;;;;;23.52;13.80;;;;;;;6.33;100.00;100861.47;20885403;28;20056;-73
2022/11/05 20:07:45;;;;;;;23.23;14.18;;;;;;;6.22;100.00;100863.09;20885724;28;20482;-72
2022/11/05 20:17:53;;;;;;;24.05;13.25;;;;;;;6.11;100.00;100864.72;20883216;28;20075;-72
2022/11/05 20:27:55;;;;;;;24.88;14.25;;;;;;;5.95;100.00;100874.09;20851071;28;20080;-73
2022/11/05 20:37:56;;;;;;;23.55;15.13;;;;;;;5.84;100.00;100873.94;20884227;28;20073;-75
2022/11/05 20:47:57;;;;;;;34.47;18.73;;;;;;;5.77;100.00;100871.25;20901084;28;20048;-74
2022/11/05 20:57:59;;;;;;;67.85;30.73;;;;;;;5.68;100.00;100872.03;20899620;28;20477;-71
2022/11/05 21:08:00;;;;;;;38.05;20.10;;;;;;;5.73;100.00;100878.13;20898265;28;20073;-71
2022/11/05 21:18:02;;;;;;;34.03;20.00;;;;;;;5.73;100.00;100867.75;20894197;28;20041;-74
2022/11/05 21:28:03;;;;;;;28.83;17.20;;;;;;;5.76;100.00;100866.94;20898652;28;20052;-72
2022/11/05 21:38:04;;;;;;;22.80;12.15;;;;;;;5.62;100.00;100867.63;20894210;28;20132;-73
2022/11/05 21:48:06;;;;;;;21.75;13.50;;;;;;;5.56;100.00;100864.09;20875667;28;20057;-73
2022/11/05 22:08:27;;;;;;;25.02;14.27;;;;;;;5.67;100.00;100859.91;20894645;28;20088;-72
2022/11/05 22:18:29;;;;;;;23.02;12.55;;;;;;;5.68;100.00;100872.03;20883570;28;20489;-72
2022/11/05 22:28:30;;;;;;;24.60;12.88;;;;;;;5.62;100.00;100869.34;20887617;28;20053;-72
2022/11/05 22:38:32;;;;;;;26.55;11.40;;;;;;;5.52;100.00;100851.94;20869727;28;20142;-72
2022/11/05 22:48:33;;;;;;;21.77;11.55;;;;;;;5.35;100.00;100855.16;20886694;28;20464;-73
2022/11/05 22:58:34;;;;;;;19.33;10.85;;;;;;;5.27;100.00;100861.09;20885088;28;20052;-72
2022/11/05 23:29:16;;;;;;;28.20;14.50;;;;;;;5.14;100.00;100809.03;20884461;28;20583;-72
2022/11/05 23:39:17;;;;;;;26.98;14.00;;;;;;;5.06;100.00;100823.63;20886123;28;20489;-73
2022/11/05 23:49:18;;;;;;;26.95;14.18;;;;;;;4.96;100.00;100828.69;20890041;28;20382;-72
2022/11/05 23:59:20;;;;;;;28.10;15.13;;;;;;;4.85;100.00;100826.81;20887594;28;20114;-72
